sensor_id;sensor_type;location;lat;lon;timestamp;temperature;humidity
45868;DHT22;31582;45.490;7.860;2023-01-19T00:00:06;-0.40;99.90
45868;DHT22;31582;45.490;7.860;2023-01-19T00:02:37;-0.30;99.90
45868;DHT22;31582;45.490;7.860;2023-01-19T00:05:04;-0.40;99.90
45868;DHT22;31582;45.490;7.860;2023-01-19T00:07:32;-0.40;99.90
45868;DHT22;31582;45.490;7.860;2023-01-19T00:09:58;-0.40;99.90
45868;DHT22;31582;45.490;7.860;2023-01-19T00:12:26;-0.20;99.90
45868;DHT22;31582;45.490;7.860;2023-01-19T00:14:53;0.10;99.90
45868;DHT22;31582;45.490;7.860;2023-01-19T00:17:19;0.40;99.90
45868;DHT22;31582;45.490;7.860;2023-01-19T00:19:46;1.20;73.20
45868;DHT22;31582;45.490;7.860;2023-01-19T00:22:13;1.70;71.50
45868;DHT22;31582;45.490;7.860;2023-01-19T00:24:40;2.00;66.50
45868;DHT22;31582;45.490;7.860;2023-01-19T00:27:07;2.50;58.30
45868;DHT22;31582;45.490;7.860;2023-01-19T00:29:34;2.80;56.90
45868;DHT22;31582;45.490;7.860;2023-01-19T00:32:02;3.00;54.80
45868;DHT22;31582;45.490;7.860;2023-01-19T00:34:30;3.20;53.00
45868;DHT22;31582;45.490;7.860;2023-01-19T00:37:03;3.20;53.70
45868;DHT22;31582;45.490;7.860;2023-01-19T00:39:30;3.30;51.90
45868;DHT22;31582;45.490;7.860;2023-01-19T00:41:57;3.50;48.90
45868;DHT22;31582;45.490;7.860;2023-01-19T00:44:42;3.60;49.10
45868;DHT22;31582;45.490;7.860;2023-01-19T00:47:09;3.70;47.90
45868;DHT22;31582;45.490;7.860;2023-01-19T00:49:36;3.80;47.50
45868;DHT22;31582;45.490;7.860;2023-01-19T00:52:03;3.90;45.50
45868;DHT22;31582;45.490;7.860;2023-01-19T00:54:30;4.10;44.60
45868;DHT22;31582;45.490;7.860;2023-01-19T00:56:57;4.30;44.00
45868;DHT22;31582;45.490;7.860;2023-01-19T00:59:24;4.40;42.80
45868;DHT22;31582;45.490;7.860;2023-01-19T01:01:51;4.30;44.20
45868;DHT22;31582;45.490;7.860;2023-01-19T01:04:18;4.40;43.50
45868;DHT22;31582;45.490;7.860;2023-01-19T01:06:45;4.50;42.40
45868;DHT22;31582;45.490;7.860;2023-01-19T01:09:12;4.40;43.30
45868;DHT22;31582;45.490;7.860;2023-01-19T01:11:40;4.40;42.00
45868;DHT22;31582;45.490;7.860;2023-01-19T01:14:08;4.40;42.00
45868;DHT22;31582;45.490;7.860;2023-01-19T01:16:36;4.40;42.30
45868;DHT22;31582;45.490;7.860;2023-01-19T01:19:03;4.50;41.90
45868;DHT22;31582;45.490;7.860;2023-01-19T01:21:30;4.50;41.20
45868;DHT22;31582;45.490;7.860;2023-01-19T01:23:56;4.40;41.90
45868;DHT22;31582;45.490;7.860;2023-01-19T01:26:23;4.50;40.80
45868;DHT22;31582;45.490;7.860;2023-01-19T01:28:53;4.50;40.70
45868;DHT22;31582;45.490;7.860;2023-01-19T01:31:20;4.50;40.30
45868;DHT22;31582;45.490;7.860;2023-01-19T01:33:47;4.50;40.20
45868;DHT22;31582;45.490;7.860;2023-01-19T01:36:14;4.50;41.10
45868;DHT22;31582;45.490;7.860;2023-01-19T01:38:41;4.50;39.40
45868;DHT22;31582;45.490;7.860;2023-01-19T01:41:08;4.60;39.60
45868;DHT22;31582;45.490;7.860;2023-01-19T01:43:49;4.60;38.30
45868;DHT22;31582;45.490;7.860;2023-01-19T01:46:17;4.60;39.50
45868;DHT22;31582;45.490;7.860;2023-01-19T01:49:06;4.50;39.50
45868;DHT22;31582;45.490;7.860;2023-01-19T01:51:37;4.60;39.90
45868;DHT22;31582;45.490;7.860;2023-01-19T01:56:47;4.80;37.70
45868;DHT22;31582;45.490;7.860;2023-01-19T01:59:22;4.70;37.80
45868;DHT22;31582;45.490;7.860;2023-01-19T02:01:56;4.80;37.80
